createdAt,value
2023-04-16T00:00:15.540Z,7.14
2023-04-16T00:03:05.810Z,7.13
2023-04-16T00:05:35.581Z,7.08
2023-04-16T00:08:06.971Z,7.07
2023-04-16T00:10:36.642Z,7.03
2023-04-16T00:13:06.762Z,7.06
2023-04-16T00:15:36.461Z,7.01
2023-04-16T00:18:06.454Z,7.03
2023-04-16T00:20:36.152Z,7.00
2023-04-16T00:23:07.668Z,7.00
2023-04-16T00:25:37.381Z,7.01
2023-04-16T00:28:08.029Z,6.99
2023-04-16T00:30:38.314Z,6.96
2023-04-16T00:33:08.470Z,6.90
2023-04-16T00:35:38.106Z,6.92
2023-04-16T00:38:09.873Z,6.92
2023-04-16T00:40:39.941Z,6.85
2023-04-16T00:43:10.069Z,6.83
2023-04-16T00:45:40.095Z,6.78
2023-04-16T00:48:10.196Z,6.78
2023-04-16T00:50:39.871Z,6.79
2023-04-16T00:53:11.371Z,6.82
2023-04-16T00:55:41.243Z,6.79
2023-04-16T00:58:11.197Z,6.75
2023-04-16T01:00:40.705Z,6.75
2023-04-16T01:03:11.190Z,6.74
2023-04-16T01:05:40.901Z,6.75
2023-04-16T01:08:19.100Z,6.68
2023-04-16T01:10:48.833Z,6.69
2023-04-16T01:13:18.833Z,6.69
2023-04-16T01:15:48.280Z,6.65
2023-04-16T01:18:18.252Z,6.67
2023-04-16T01:20:49.385Z,6.67
2023-04-16T01:23:20.001Z,6.65
2023-04-16T01:25:49.628Z,6.61
2023-04-16T01:28:19.655Z,6.62
2023-04-16T01:30:49.240Z,6.60
2023-04-16T01:33:31.091Z,6.58
2023-04-16T01:36:02.062Z,6.58
2023-04-16T01:38:32.073Z,6.54
2023-04-16T01:41:02.240Z,6.53
2023-04-16T01:43:32.268Z,6.55
2023-04-16T01:46:13.335Z,6.54
2023-04-16T01:48:43.925Z,6.52
2023-04-16T01:51:14.866Z,6.45
2023-04-16T01:53:44.903Z,6.47
2023-04-16T01:56:14.517Z,6.49
2023-04-16T01:58:46.304Z,6.47
2023-04-16T02:01:17.719Z,6.44
2023-04-16T02:03:48.998Z,6.48
2023-04-16T02:06:20.488Z,6.48
2023-04-16T02:08:50.712Z,6.50
2023-04-16T02:11:20.364Z,6.49
2023-04-16T02:13:51.275Z,6.47
2023-04-16T02:16:21.780Z,6.49
2023-04-16T02:19:14.470Z,6.45
2023-04-16T02:21:46.909Z,6.41
2023-04-16T02:24:16.881Z,6.41
2023-04-16T02:26:46.568Z,6.38
2023-04-16T02:29:19.872Z,6.32
2023-04-16T02:31:55.729Z,6.33
2023-04-16T02:34:26.793Z,6.30
2023-04-16T02:36:58.688Z,6.27
2023-04-16T02:39:28.810Z,6.24
2023-04-16T02:41:59.618Z,6.26
2023-04-16T02:44:30.040Z,6.24
2023-04-16T02:46:59.538Z,6.25
2023-04-16T02:49:29.548Z,6.22
2023-04-16T02:52:00.601Z,6.19
2023-04-16T02:54:30.916Z,6.19
2023-04-16T02:57:00.495Z,6.17
2023-04-16T02:59:30.389Z,6.18
2023-04-16T03:02:00.088Z,6.19
2023-04-16T03:04:30.157Z,6.15
2023-04-16T03:07:01.285Z,6.14
2023-04-16T03:09:31.990Z,6.13
2023-04-16T03:12:02.081Z,6.13
2023-04-16T03:14:32.096Z,6.13
2023-04-16T03:17:01.824Z,6.11
2023-04-16T03:19:31.690Z,6.07
2023-04-16T03:22:03.012Z,6.09
2023-04-16T03:24:33.320Z,6.03
2023-04-16T03:27:03.325Z,6.05
2023-04-16T03:29:33.312Z,6.10
2023-04-16T03:32:02.969Z,6.11
2023-04-16T03:34:32.912Z,6.09
2023-04-16T03:37:05.875Z,6.06
2023-04-16T03:39:35.853Z,5.99
2023-04-16T03:42:05.533Z,5.97
2023-04-16T03:44:37.152Z,6.02
2023-04-16T03:47:06.693Z,5.97
2023-04-16T03:49:36.532Z,5.99
2023-04-16T03:52:07.617Z,5.97
2023-04-16T03:54:37.640Z,6.01
2023-04-16T03:57:21.787Z,6.02
2023-04-16T03:59:52.219Z,5.93
2023-04-16T04:02:22.096Z,5.97
2023-04-16T04:04:52.588Z,5.93
2023-04-16T04:07:23.754Z,5.93
2023-04-16T04:09:55.348Z,5.92
2023-04-16T04:12:25.133Z,5.89
2023-04-16T04:14:55.182Z,5.91
2023-04-16T04:17:25.046Z,5.95
2023-04-16T04:22:31.535Z,5.87
2023-04-16T04:25:01.748Z,5.85
2023-04-16T04:27:33.996Z,5.84
2023-04-16T04:30:04.601Z,5.87
2023-04-16T04:32:34.712Z,5.84
2023-04-16T04:35:05.310Z,5.83
2023-04-16T04:37:36.523Z,5.82
2023-04-16T04:40:15.409Z,5.81
2023-04-16T04:42:44.974Z,5.84
2023-04-16T04:45:14.945Z,5.81
2023-04-16T04:47:44.831Z,5.81
2023-04-16T04:50:15.007Z,5.84
2023-04-16T04:52:46.047Z,5.88
2023-04-16T04:55:16.372Z,5.84
2023-04-16T04:57:45.935Z,5.81
2023-04-16T05:00:15.929Z,5.84
2023-04-16T05:02:52.723Z,5.82
2023-04-16T05:05:22.887Z,5.82
2023-04-16T05:07:53.889Z,5.84
2023-04-16T05:10:23.740Z,5.86
2023-04-16T05:12:53.258Z,5.87
2023-04-16T05:15:23.394Z,5.88
2023-04-16T05:17:53.100Z,5.88
2023-04-16T05:20:24.441Z,5.95
2023-04-16T05:22:55.642Z,5.93
2023-04-16T05:25:25.676Z,5.89
2023-04-16T05:27:55.290Z,5.90
2023-04-16T05:30:25.867Z,5.94
2023-04-16T05:32:55.466Z,5.93
2023-04-16T05:35:25.444Z,5.92
2023-04-16T05:37:56.509Z,5.97
2023-04-16T05:40:29.776Z,6.00
2023-04-16T05:42:59.446Z,6.01
2023-04-16T05:45:29.564Z,6.04
2023-04-16T05:47:59.664Z,6.08
2023-04-16T05:50:29.822Z,6.07
2023-04-16T05:53:00.964Z,6.12
2023-04-16T05:55:31.078Z,6.10
2023-04-16T05:58:00.765Z,6.13
2023-04-16T06:00:30.994Z,6.17
2023-04-16T06:03:00.926Z,6.19
2023-04-16T06:05:33.777Z,6.21
2023-04-16T06:08:05.665Z,6.18
2023-04-16T06:10:36.088Z,6.13
2023-04-16T06:13:05.645Z,6.21
2023-04-16T06:15:35.615Z,6.27
2023-04-16T06:18:05.511Z,6.15
2023-04-16T06:20:35.955Z,6.19
2023-04-16T06:23:07.072Z,6.18
2023-04-16T06:25:37.189Z,6.21
2023-04-16T06:28:07.115Z,6.20
2023-04-16T06:30:37.223Z,6.24
2023-04-16T06:33:06.753Z,6.26
2023-04-16T06:35:36.656Z,6.29
2023-04-16T06:38:07.635Z,6.33
2023-04-16T06:40:37.916Z,6.37
2023-04-16T06:43:07.527Z,6.28
2023-04-16T06:45:37.656Z,6.28
2023-04-16T06:48:07.608Z,6.31
2023-04-16T06:50:37.907Z,6.35
2023-04-16T06:53:09.021Z,6.36
2023-04-16T06:55:39.223Z,6.38
2023-04-16T06:58:08.985Z,6.48
2023-04-16T07:00:38.987Z,6.49
2023-04-16T07:03:09.168Z,6.48
2023-04-16T07:05:39.370Z,6.48
2023-04-16T07:08:10.873Z,6.55
2023-04-16T07:10:41.130Z,6.57
2023-04-16T07:13:10.992Z,6.55
2023-04-16T07:15:41.316Z,6.50
2023-04-16T07:18:11.961Z,6.48
2023-04-16T07:20:41.888Z,6.42
2023-04-16T07:23:13.025Z,6.47
2023-04-16T07:25:43.246Z,6.56
2023-04-16T07:28:13.498Z,6.58
2023-04-16T07:30:43.488Z,6.61
2023-04-16T07:33:13.133Z,6.69
2023-04-16T07:35:43.338Z,6.57
2023-04-16T07:38:15.049Z,6.62
2023-04-16T07:40:45.270Z,6.54
2023-04-16T07:43:15.702Z,6.59
2023-04-16T07:45:45.820Z,6.58
2023-04-16T07:48:15.790Z,6.57
2023-04-16T07:50:45.909Z,6.50
2023-04-16T07:53:17.235Z,6.46
2023-04-16T07:55:47.351Z,6.56
2023-04-16T07:58:18.171Z,6.49
2023-04-16T08:00:49.790Z,6.43
2023-04-16T08:03:20.994Z,6.45
2023-04-16T08:05:51.118Z,6.49
2023-04-16T08:08:22.329Z,6.44
2023-04-16T08:10:56.022Z,6.41
2023-04-16T08:13:26.692Z,6.41
2023-04-16T08:15:56.933Z,6.35
2023-04-16T08:18:27.360Z,6.41
2023-04-16T08:20:59.184Z,6.50
2023-04-16T08:23:30.592Z,6.53
2023-04-16T08:26:00.603Z,6.58
2023-04-16T08:28:30.268Z,6.87
2023-04-16T08:31:00.388Z,6.88
2023-04-16T08:33:30.173Z,6.85
2023-04-16T08:36:00.270Z,6.85
2023-04-16T08:38:31.397Z,7.06
2023-04-16T08:41:04.643Z,7.32
2023-04-16T08:43:35.178Z,7.76
2023-04-16T08:46:06.835Z,7.90
2023-04-16T08:48:36.820Z,8.37
2023-04-16T08:51:10.968Z,8.58
2023-04-16T08:53:50.110Z,8.59
2023-04-16T08:56:22.227Z,8.62
2023-04-16T08:58:52.658Z,8.55
2023-04-16T09:01:23.144Z,8.35
2023-04-16T09:03:53.537Z,8.01
2023-04-16T09:06:23.941Z,7.79
2023-04-16T09:08:55.708Z,7.50
2023-04-16T09:11:26.216Z,7.47
2023-04-16T09:13:56.176Z,7.71
2023-04-16T09:16:27.026Z,7.74
2023-04-16T09:18:57.227Z,7.76
2023-04-16T09:21:28.237Z,7.59
2023-04-16T09:23:59.960Z,7.71
2023-04-16T09:26:30.017Z,7.67
2023-04-16T09:28:59.630Z,7.70
2023-04-16T09:31:29.610Z,7.65
2023-04-16T09:34:03.228Z,7.35
2023-04-16T09:36:34.023Z,7.36
2023-04-16T09:39:05.312Z,7.20
2023-04-16T09:41:39.795Z,7.12
2023-04-16T09:44:09.491Z,7.49
2023-04-16T09:46:43.740Z,7.39
2023-04-16T09:49:15.763Z,7.41
2023-04-16T09:51:48.300Z,7.66
2023-04-16T09:54:21.379Z,8.01
2023-04-16T09:56:51.390Z,7.96
2023-04-16T09:59:21.316Z,7.66
2023-04-16T10:01:57.249Z,7.80
2023-04-16T10:04:47.698Z,7.65
2023-04-16T10:07:17.983Z,7.55
2023-04-16T10:09:49.887Z,7.49
2023-04-16T10:12:20.124Z,7.61
2023-04-16T10:14:50.425Z,7.67
2023-04-16T10:17:21.528Z,7.79
2023-04-16T10:19:52.702Z,7.71
2023-04-16T10:22:22.673Z,7.83
2023-04-16T10:24:54.142Z,7.92
2023-04-16T10:27:24.274Z,7.99
2023-04-16T10:29:54.146Z,7.97
2023-04-16T10:32:28.852Z,8.18
2023-04-16T10:35:01.323Z,8.41
2023-04-16T10:37:32.655Z,8.33
2023-04-16T10:40:23.192Z,8.02
2023-04-16T10:42:58.973Z,8.11
2023-04-16T10:45:33.696Z,8.11
2023-04-16T10:48:06.339Z,7.93
2023-04-16T10:50:36.797Z,7.95
2023-04-16T10:53:19.786Z,8.11
2023-04-16T10:56:00.573Z,8.15
2023-04-16T10:58:30.630Z,8.24
2023-04-16T11:01:02.078Z,8.16
2023-04-16T11:03:32.504Z,7.85
2023-04-16T11:06:12.765Z,8.04
2023-04-16T11:08:54.120Z,7.92
2023-04-16T11:11:26.300Z,8.22
2023-04-16T11:13:57.168Z,8.34
2023-04-16T11:16:30.259Z,8.12
2023-04-16T11:19:00.268Z,7.78
2023-04-16T11:21:30.132Z,8.10
2023-04-16T11:24:00.616Z,8.15
2023-04-16T11:26:32.020Z,8.43
2023-04-16T11:29:05.944Z,8.53
2023-04-16T11:31:36.049Z,8.49
2023-04-16T11:34:09.189Z,8.27
2023-04-16T11:36:50.037Z,8.38
2023-04-16T11:39:25.509Z,8.42
2023-04-16T11:41:56.936Z,8.09
2023-04-16T11:44:28.217Z,8.07
2023-04-16T11:46:57.958Z,8.15
2023-04-16T11:49:30.990Z,8.34
2023-04-16T11:52:01.860Z,8.47
2023-04-16T11:54:35.310Z,8.50
2023-04-16T11:57:07.492Z,8.67
2023-04-16T11:59:37.504Z,8.39
2023-04-16T12:02:40.408Z,8.50
2023-04-16T12:05:25.691Z,8.42
2023-04-16T12:07:55.540Z,8.50
2023-04-16T12:10:25.770Z,8.33
2023-04-16T12:12:57.490Z,8.47
2023-04-16T12:15:45.060Z,8.66
2023-04-16T12:18:15.225Z,8.60
2023-04-16T12:20:46.051Z,8.43
2023-04-16T12:23:24.349Z,8.41
2023-04-16T12:25:54.789Z,8.77
2023-04-16T12:28:32.983Z,8.79
2023-04-16T12:31:03.587Z,8.62
2023-04-16T12:33:33.776Z,8.68
2023-04-16T12:36:18.010Z,8.39
2023-04-16T12:38:47.732Z,8.62
2023-04-16T12:41:17.961Z,8.91
2023-04-16T12:43:49.350Z,9.21
2023-04-16T12:46:20.654Z,9.08
2023-04-16T12:48:50.669Z,8.74
2023-04-16T12:51:20.640Z,8.43
2023-04-16T12:53:50.207Z,8.75
2023-04-16T12:56:20.102Z,8.49
2023-04-16T12:58:52.336Z,8.57
2023-04-16T13:01:22.406Z,8.63
2023-04-16T13:03:52.309Z,8.75
2023-04-16T13:06:22.585Z,8.54
2023-04-16T13:08:52.061Z,8.58
2023-04-16T13:11:22.026Z,8.54
2023-04-16T13:13:53.202Z,8.54
2023-04-16T13:16:23.369Z,8.39
2023-04-16T13:18:53.151Z,8.67
2023-04-16T13:21:24.044Z,8.43
2023-04-16T13:23:54.371Z,8.40
2023-04-16T13:26:24.353Z,8.43
2023-04-16T13:28:55.376Z,8.32
2023-04-16T13:31:26.303Z,8.14
2023-04-16T13:33:56.014Z,8.24
2023-04-16T13:36:27.649Z,8.36
2023-04-16T13:38:57.432Z,8.17
2023-04-16T13:41:27.704Z,8.35
2023-04-16T13:43:58.670Z,8.44
2023-04-16T13:46:29.346Z,8.35
2023-04-16T13:48:59.075Z,8.33
2023-04-16T13:51:29.018Z,8.31
2023-04-16T13:53:58.645Z,8.27
2023-04-16T13:56:28.618Z,8.30
2023-04-16T13:58:59.773Z,8.42
2023-04-16T14:01:29.862Z,8.39
2023-04-16T14:04:02.182Z,8.50
2023-04-16T14:06:32.435Z,8.49
2023-04-16T14:09:02.128Z,8.56
2023-04-16T14:11:32.746Z,8.55
2023-04-16T14:14:03.796Z,8.69
2023-04-16T14:16:34.090Z,8.48
2023-04-16T14:19:03.711Z,8.55
2023-04-16T14:21:33.889Z,8.33
2023-04-16T14:24:03.803Z,8.26
2023-04-16T14:26:33.652Z,8.24
2023-04-16T14:29:04.719Z,8.05
2023-04-16T14:31:34.727Z,8.13
2023-04-16T14:34:04.422Z,8.00
2023-04-16T14:36:34.369Z,8.09
2023-04-16T14:39:03.902Z,7.96
2023-04-16T14:41:33.840Z,8.06
2023-04-16T14:44:06.419Z,7.93
2023-04-16T14:46:36.340Z,7.92
2023-04-16T14:49:06.327Z,7.97
2023-04-16T14:51:37.359Z,7.88
2023-04-16T14:54:07.048Z,7.82
2023-04-16T14:56:37.012Z,7.80
2023-04-16T14:59:08.442Z,7.72
2023-04-16T15:01:40.026Z,7.80
2023-04-16T15:04:09.932Z,7.73
2023-04-16T15:06:40.147Z,7.83
2023-04-16T15:09:10.308Z,7.85
2023-04-16T15:11:40.531Z,7.74
2023-04-16T15:14:11.869Z,7.58
2023-04-16T15:16:42.328Z,7.71
2023-04-16T15:19:14.492Z,7.77
2023-04-16T15:21:45.980Z,7.67
2023-04-16T15:24:16.556Z,7.68
2023-04-16T15:26:46.925Z,7.76
2023-04-16T15:29:18.213Z,7.68
2023-04-16T15:31:49.373Z,7.65
2023-04-16T15:34:19.096Z,7.57
2023-04-16T15:36:49.291Z,7.63
2023-04-16T15:39:19.030Z,7.64
2023-04-16T15:42:00.762Z,7.51
2023-04-16T15:44:33.618Z,7.55
2023-04-16T15:47:03.651Z,7.49
2023-04-16T15:49:33.458Z,7.51
2023-04-16T15:52:03.519Z,7.47
2023-04-16T15:54:33.261Z,7.43
2023-04-16T15:57:03.272Z,7.44
2023-04-16T15:59:34.361Z,7.55
2023-04-16T16:02:04.443Z,7.50
2023-04-16T16:04:34.211Z,7.33
2023-04-16T16:07:09.119Z,7.35
2023-04-16T16:09:41.301Z,7.27
2023-04-16T16:12:11.272Z,7.20
2023-04-16T16:14:44.006Z,7.21
2023-04-16T16:17:14.026Z,7.26
2023-04-16T16:19:45.834Z,7.24
2023-04-16T16:22:20.594Z,7.20
2023-04-16T16:24:51.266Z,7.13
2023-04-16T16:27:21.622Z,7.16
2023-04-16T16:29:53.155Z,7.03
2023-04-16T16:32:23.228Z,6.98
2023-04-16T16:34:52.943Z,6.93
2023-04-16T16:37:22.931Z,6.91
2023-04-16T16:39:52.926Z,6.85
2023-04-16T16:42:25.179Z,6.79
2023-04-16T16:45:06.788Z,6.82
2023-04-16T16:47:42.851Z,6.73
2023-04-16T16:50:18.895Z,6.67
2023-04-16T16:52:55.109Z,6.67
2023-04-16T16:55:29.981Z,6.60
2023-04-16T16:58:06.027Z,6.59
2023-04-16T17:00:38.981Z,6.57
2023-04-16T17:03:10.643Z,6.61
2023-04-16T17:05:40.822Z,6.54
2023-04-16T17:08:10.940Z,6.48
2023-04-16T17:10:40.693Z,6.49
2023-04-16T17:13:11.007Z,6.38
2023-04-16T17:15:42.302Z,6.39
2023-04-16T17:18:12.468Z,6.36
2023-04-16T17:20:41.973Z,6.36
2023-04-16T17:23:12.526Z,6.27
2023-04-16T17:25:47.208Z,6.16
2023-04-16T17:28:17.502Z,6.17
2023-04-16T17:30:52.455Z,6.12
2023-04-16T17:33:23.497Z,6.09
2023-04-16T17:35:53.775Z,6.08
2023-04-16T17:38:25.143Z,6.00
2023-04-16T17:40:57.743Z,5.95
2023-04-16T17:43:30.453Z,5.89
2023-04-16T17:46:05.559Z,5.91
2023-04-16T17:48:39.328Z,5.89
2023-04-16T17:51:13.451Z,5.79
2023-04-16T17:53:50.521Z,5.71
2023-04-16T17:56:20.111Z,5.68
2023-04-16T17:58:52.711Z,5.69
2023-04-16T18:01:29.547Z,5.65
2023-04-16T18:04:01.586Z,5.64
2023-04-16T18:06:34.671Z,5.61
2023-04-16T18:09:11.691Z,5.57
2023-04-16T18:11:43.877Z,5.50
2023-04-16T18:14:20.244Z,5.40
2023-04-16T18:16:53.526Z,5.38
2023-04-16T18:19:28.538Z,5.39
2023-04-16T18:21:59.563Z,5.32
2023-04-16T18:24:32.237Z,5.35
2023-04-16T18:27:03.655Z,5.33
2023-04-16T18:29:38.881Z,5.33
2023-04-16T18:32:14.417Z,5.26
2023-04-16T18:34:45.484Z,5.24
2023-04-16T18:37:16.394Z,5.26
2023-04-16T18:39:50.396Z,5.29
2023-04-16T18:42:21.508Z,5.28
2023-04-16T18:44:55.274Z,5.29
2023-04-16T18:47:28.265Z,5.28
2023-04-16T18:50:04.612Z,5.31
2023-04-16T18:52:38.088Z,5.27
2023-04-16T18:55:08.447Z,5.27
2023-04-16T18:57:37.925Z,5.30
2023-04-16T19:00:12.769Z,5.25
2023-04-16T19:02:44.093Z,5.23
2023-04-16T19:05:14.161Z,5.21
2023-04-16T19:07:43.820Z,5.22
2023-04-16T19:10:14.116Z,5.25
2023-04-16T19:12:45.664Z,5.22
2023-04-16T19:15:16.662Z,5.20
2023-04-16T19:17:47.949Z,5.25
2023-04-16T19:20:18.081Z,5.24
2023-04-16T19:22:47.712Z,5.21
2023-04-16T19:25:17.643Z,5.14
2023-04-16T19:27:47.407Z,5.15
2023-04-16T19:30:17.318Z,5.17
2023-04-16T19:32:49.606Z,5.12
2023-04-16T19:35:21.366Z,5.09
2023-04-16T19:37:53.500Z,5.10
2023-04-16T19:40:27.046Z,5.05
2023-04-16T19:42:59.468Z,5.04
2023-04-16T19:45:32.574Z,5.05
2023-04-16T19:48:07.989Z,5.03
2023-04-16T19:50:42.170Z,5.08
2023-04-16T19:53:14.328Z,5.08
2023-04-16T19:55:45.502Z,5.04
2023-04-16T19:58:16.532Z,5.04
2023-04-16T20:00:48.930Z,5.00
2023-04-16T20:03:20.106Z,4.94
2023-04-16T20:05:51.980Z,4.90
2023-04-16T20:08:24.046Z,4.86
2023-04-16T20:10:56.550Z,4.83
2023-04-16T20:13:29.652Z,4.74
2023-04-16T20:16:03.647Z,4.77
2023-04-16T20:18:41.716Z,4.77
2023-04-16T20:21:15.365Z,4.70
2023-04-16T20:23:46.148Z,4.69
2023-04-16T20:26:19.228Z,4.69
2023-04-16T20:28:50.447Z,4.66
2023-04-16T20:31:23.458Z,4.62
2023-04-16T20:33:55.857Z,4.53
2023-04-16T20:36:28.354Z,4.52
2023-04-16T20:39:00.008Z,4.55
2023-04-16T20:41:33.013Z,4.55
2023-04-16T20:44:06.066Z,4.51
2023-04-16T20:46:40.406Z,4.53
2023-04-16T20:49:14.501Z,4.55
2023-04-16T20:51:46.289Z,4.52
2023-04-16T20:54:17.499Z,4.49
2023-04-16T20:56:50.409Z,4.51
2023-04-16T20:59:20.706Z,4.49
2023-04-16T21:01:51.051Z,4.41
2023-04-16T21:04:25.800Z,4.36
2023-04-16T21:06:57.948Z,4.35
2023-04-16T21:09:27.471Z,4.33
2023-04-16T21:11:58.741Z,4.29
2023-04-16T21:14:28.417Z,4.31
2023-04-16T21:16:58.305Z,4.33
2023-04-16T21:19:29.310Z,4.31
2023-04-16T21:21:59.451Z,4.32
2023-04-16T21:24:29.017Z,4.29
2023-04-16T21:26:58.845Z,4.27
2023-04-16T21:29:28.439Z,4.24
2023-04-16T21:31:58.413Z,4.23
2023-04-16T21:34:29.518Z,4.26
2023-04-16T21:36:59.662Z,4.30
2023-04-16T21:39:31.170Z,4.34
2023-04-16T21:42:01.173Z,4.37
2023-04-16T21:44:30.814Z,4.40
2023-04-16T21:47:00.774Z,4.46
2023-04-16T21:49:31.984Z,4.52
2023-04-16T21:52:02.710Z,4.56
2023-04-16T21:54:32.282Z,4.57
2023-04-16T21:57:02.166Z,4.60
2023-04-16T21:59:31.802Z,4.68
2023-04-16T22:02:02.078Z,4.73
2023-04-16T22:04:39.155Z,4.78
2023-04-16T22:07:10.331Z,4.76
2023-04-16T22:09:40.645Z,4.75
2023-04-16T22:12:10.872Z,4.81
2023-04-16T22:14:46.213Z,4.79
2023-04-16T22:17:27.900Z,4.81
2023-04-16T22:20:00.820Z,4.84
2023-04-16T22:22:30.792Z,4.82
2023-04-16T22:25:00.438Z,4.84
2023-04-16T22:27:30.313Z,4.87
2023-04-16T22:29:59.869Z,4.87
2023-04-16T22:32:31.257Z,4.89
2023-04-16T22:35:02.353Z,4.91
2023-04-16T22:37:32.786Z,4.92
2023-04-16T22:40:02.558Z,4.96
2023-04-16T22:42:32.502Z,4.95
2023-04-16T22:45:02.121Z,4.94
2023-04-16T22:47:32.118Z,4.96
2023-04-16T22:50:03.507Z,4.96
2023-04-16T22:52:33.436Z,4.95
2023-04-16T22:55:02.901Z,4.91
2023-04-16T22:57:32.931Z,4.96
2023-04-16T23:00:02.500Z,4.97
2023-04-16T23:02:32.483Z,4.92
2023-04-16T23:05:03.863Z,4.94
2023-04-16T23:07:33.781Z,4.92
2023-04-16T23:10:03.430Z,4.92
2023-04-16T23:12:33.307Z,4.94
2023-04-16T23:15:02.799Z,5.01
2023-04-16T23:17:33.979Z,5.02
2023-04-16T23:20:07.902Z,5.03
2023-04-16T23:22:37.819Z,5.02
2023-04-16T23:25:08.092Z,4.98
2023-04-16T23:27:38.458Z,5.00
2023-04-16T23:30:08.568Z,5.01
2023-04-16T23:32:38.648Z,5.01
2023-04-16T23:35:10.552Z,5.03
2023-04-16T23:37:40.662Z,5.05
2023-04-16T23:40:11.385Z,5.06
2023-04-16T23:42:41.329Z,5.06
2023-04-16T23:45:11.436Z,5.05
2023-04-16T23:47:41.475Z,5.04
2023-04-16T23:50:12.923Z,5.09
2023-04-16T23:52:42.760Z,5.09
2023-04-16T23:55:12.330Z,5.08
2023-04-16T23:57:42.400Z,5.08
